sensor_id;sensor_type;location;lat;lon;timestamp;P1;durP1;ratioP1;P2;durP2;ratioP2
68858;SDS011;55864;49.238;8.092;2023-12-20T00:01:41;3.57;;;1.60;;
68858;SDS011;55864;49.238;8.092;2023-12-20T00:03:42;3.97;;;1.33;;
68858;SDS011;55864;49.238;8.092;2023-12-20T00:05:42;3.00;;;1.30;;
68858;SDS011;55864;49.238;8.092;2023-12-20T00:07:43;3.47;;;1.30;;
68858;SDS011;55864;49.238;8.092;2023-12-20T00:09:45;2.90;;;1.10;;
68858;SDS011;55864;49.238;8.092;2023-12-20T00:11:45;2.53;;;1.10;;
68858;SDS011;55864;49.238;8.092;2023-12-20T00:13:46;3.57;;;1.10;;
68858;SDS011;55864;49.238;8.092;2023-12-20T00:15:46;4.40;;;1.10;;
68858;SDS011;55864;49.238;8.092;2023-12-20T00:17:47;3.70;;;1.33;;
68858;SDS011;55864;49.238;8.092;2023-12-20T00:19:47;4.60;;;1.40;;
68858;SDS011;55864;49.238;8.092;2023-12-20T00:21:48;3.03;;;1.10;;
68858;SDS011;55864;49.238;8.092;2023-12-20T00:23:48;5.37;;;1.17;;
68858;SDS011;55864;49.238;8.092;2023-12-20T00:25:50;2.70;;;1.17;;
68858;SDS011;55864;49.238;8.092;2023-12-20T00:27:51;2.60;;;1.30;;
68858;SDS011;55864;49.238;8.092;2023-12-20T00:29:52;3.63;;;1.17;;
68858;SDS011;55864;49.238;8.092;2023-12-20T00:31:52;3.37;;;1.10;;
68858;SDS011;55864;49.238;8.092;2023-12-20T00:33:53;2.67;;;1.10;;
68858;SDS011;55864;49.238;8.092;2023-12-20T00:35:53;2.87;;;1.17;;
68858;SDS011;55864;49.238;8.092;2023-12-20T00:37:54;2.13;;;1.10;;
68858;SDS011;55864;49.238;8.092;2023-12-20T00:39:54;2.17;;;0.90;;
68858;SDS011;55864;49.238;8.092;2023-12-20T00:41:56;3.13;;;1.17;;
68858;SDS011;55864;49.238;8.092;2023-12-20T00:43:57;2.33;;;1.07;;
68858;SDS011;55864;49.238;8.092;2023-12-20T00:45:57;2.37;;;1.00;;
68858;SDS011;55864;49.238;8.092;2023-12-20T00:47:58;1.93;;;1.00;;
68858;SDS011;55864;49.238;8.092;2023-12-20T00:49:58;2.33;;;1.10;;
68858;SDS011;55864;49.238;8.092;2023-12-20T00:51:59;2.10;;;1.00;;
68858;SDS011;55864;49.238;8.092;2023-12-20T00:53:59;1.33;;;0.93;;
68858;SDS011;55864;49.238;8.092;2023-12-20T00:56:00;98.33;;;5.80;;
68858;SDS011;55864;49.238;8.092;2023-12-20T00:58:02;2.97;;;1.10;;
68858;SDS011;55864;49.238;8.092;2023-12-20T01:00:03;3.37;;;1.10;;
68858;SDS011;55864;49.238;8.092;2023-12-20T01:02:06;2.80;;;1.30;;
68858;SDS011;55864;49.238;8.092;2023-12-20T01:04:07;3.53;;;1.00;;
68858;SDS011;55864;49.238;8.092;2023-12-20T01:06:07;2.13;;;0.90;;
68858;SDS011;55864;49.238;8.092;2023-12-20T01:08:08;2.17;;;1.03;;
68858;SDS011;55864;49.238;8.092;2023-12-20T01:10:08;2.83;;;1.10;;
68858;SDS011;55864;49.238;8.092;2023-12-20T01:12:09;4.07;;;1.20;;
68858;SDS011;55864;49.238;8.092;2023-12-20T01:14:11;2.40;;;1.10;;
68858;SDS011;55864;49.238;8.092;2023-12-20T01:16:11;2.40;;;1.00;;
68858;SDS011;55864;49.238;8.092;2023-12-20T01:18:12;2.50;;;1.10;;
68858;SDS011;55864;49.238;8.092;2023-12-20T01:20:13;2.20;;;1.00;;
68858;SDS011;55864;49.238;8.092;2023-12-20T01:22:14;2.33;;;1.00;;
68858;SDS011;55864;49.238;8.092;2023-12-20T01:24:14;3.40;;;1.20;;
68858;SDS011;55864;49.238;8.092;2023-12-20T01:26:15;2.57;;;1.10;;
68858;SDS011;55864;49.238;8.092;2023-12-20T01:28:15;2.90;;;1.10;;
68858;SDS011;55864;49.238;8.092;2023-12-20T01:30:17;1.57;;;0.90;;
68858;SDS011;55864;49.238;8.092;2023-12-20T01:32:17;2.80;;;1.10;;
68858;SDS011;55864;49.238;8.092;2023-12-20T01:34:18;2.47;;;1.10;;
68858;SDS011;55864;49.238;8.092;2023-12-20T01:36:18;2.90;;;1.13;;
68858;SDS011;55864;49.238;8.092;2023-12-20T01:38:19;3.20;;;1.20;;
68858;SDS011;55864;49.238;8.092;2023-12-20T01:40:20;3.27;;;1.13;;
68858;SDS011;55864;49.238;8.092;2023-12-20T01:42:20;3.57;;;1.20;;
68858;SDS011;55864;49.238;8.092;2023-12-20T01:44:21;1.63;;;0.90;;
68858;SDS011;55864;49.238;8.092;2023-12-20T01:46:22;3.10;;;1.10;;
68858;SDS011;55864;49.238;8.092;2023-12-20T01:48:23;4.00;;;1.20;;
68858;SDS011;55864;49.238;8.092;2023-12-20T01:50:24;4.20;;;1.30;;
68858;SDS011;55864;49.238;8.092;2023-12-20T01:52:25;3.67;;;1.30;;
68858;SDS011;55864;49.238;8.092;2023-12-20T01:54:27;1.97;;;1.00;;
68858;SDS011;55864;49.238;8.092;2023-12-20T01:56:27;2.40;;;1.10;;
68858;SDS011;55864;49.238;8.092;2023-12-20T01:58:29;2.60;;;1.10;;
68858;SDS011;55864;49.238;8.092;2023-12-20T02:00:30;3.03;;;1.20;;
68858;SDS011;55864;49.238;8.092;2023-12-20T02:02:32;3.90;;;1.30;;
68858;SDS011;55864;49.238;8.092;2023-12-20T02:04:33;2.53;;;1.00;;
68858;SDS011;55864;49.238;8.092;2023-12-20T02:06:34;2.67;;;1.10;;
68858;SDS011;55864;49.238;8.092;2023-12-20T02:08:35;2.10;;;1.03;;
68858;SDS011;55864;49.238;8.092;2023-12-20T02:10:36;2.50;;;0.90;;
68858;SDS011;55864;49.238;8.092;2023-12-20T02:12:37;4.40;;;1.30;;
68858;SDS011;55864;49.238;8.092;2023-12-20T02:14:37;2.63;;;1.17;;
68858;SDS011;55864;49.238;8.092;2023-12-20T02:18:43;3.57;;;1.20;;
68858;SDS011;55864;49.238;8.092;2023-12-20T02:20:44;2.65;;;1.10;;
68858;SDS011;55864;49.238;8.092;2023-12-20T02:22:46;4.07;;;1.30;;
68858;SDS011;55864;49.238;8.092;2023-12-20T02:24:46;2.70;;;1.00;;
68858;SDS011;55864;49.238;8.092;2023-12-20T02:26:47;3.27;;;1.30;;
68858;SDS011;55864;49.238;8.092;2023-12-20T02:28:48;2.50;;;0.90;;
68858;SDS011;55864;49.238;8.092;2023-12-20T02:30:48;2.23;;;1.00;;
68858;SDS011;55864;49.238;8.092;2023-12-20T02:32:49;2.67;;;1.00;;
68858;SDS011;55864;49.238;8.092;2023-12-20T02:34:50;2.03;;;1.00;;
68858;SDS011;55864;49.238;8.092;2023-12-20T02:36:50;1.83;;;0.90;;
68858;SDS011;55864;49.238;8.092;2023-12-20T02:38:52;2.03;;;1.00;;
68858;SDS011;55864;49.238;8.092;2023-12-20T02:40:52;1.60;;;1.00;;
68858;SDS011;55864;49.238;8.092;2023-12-20T02:42:53;1.50;;;0.83;;
68858;SDS011;55864;49.238;8.092;2023-12-20T02:44:53;1.97;;;0.93;;
68858;SDS011;55864;49.238;8.092;2023-12-20T02:46:54;2.47;;;1.00;;
68858;SDS011;55864;49.238;8.092;2023-12-20T02:48:54;1.77;;;0.90;;
68858;SDS011;55864;49.238;8.092;2023-12-20T02:50:55;1.77;;;0.80;;
68858;SDS011;55864;49.238;8.092;2023-12-20T02:52:55;2.47;;;1.00;;
68858;SDS011;55864;49.238;8.092;2023-12-20T02:54:57;2.93;;;0.90;;
68858;SDS011;55864;49.238;8.092;2023-12-20T02:56:58;2.83;;;1.10;;
68858;SDS011;55864;49.238;8.092;2023-12-20T02:58:58;2.73;;;1.20;;
68858;SDS011;55864;49.238;8.092;2023-12-20T03:00:59;1.97;;;1.07;;
68858;SDS011;55864;49.238;8.092;2023-12-20T03:02:59;2.60;;;1.10;;
68858;SDS011;55864;49.238;8.092;2023-12-20T03:05:00;2.13;;;1.10;;
68858;SDS011;55864;49.238;8.092;2023-12-20T03:07:00;2.87;;;1.13;;
68858;SDS011;55864;49.238;8.092;2023-12-20T03:09:01;2.60;;;1.20;;
68858;SDS011;55864;49.238;8.092;2023-12-20T03:11:03;1.80;;;1.00;;
68858;SDS011;55864;49.238;8.092;2023-12-20T03:13:03;2.67;;;1.20;;
68858;SDS011;55864;49.238;8.092;2023-12-20T03:15:04;2.83;;;1.10;;
68858;SDS011;55864;49.238;8.092;2023-12-20T03:17:05;2.83;;;1.20;;
68858;SDS011;55864;49.238;8.092;2023-12-20T03:19:06;2.13;;;1.00;;
68858;SDS011;55864;49.238;8.092;2023-12-20T03:21:06;2.40;;;1.27;;
68858;SDS011;55864;49.238;8.092;2023-12-20T03:23:07;2.97;;;1.20;;
68858;SDS011;55864;49.238;8.092;2023-12-20T03:25:07;3.50;;;1.50;;
68858;SDS011;55864;49.238;8.092;2023-12-20T03:27:09;2.93;;;1.20;;
68858;SDS011;55864;49.238;8.092;2023-12-20T03:29:10;3.90;;;1.47;;
68858;SDS011;55864;49.238;8.092;2023-12-20T03:31:10;4.27;;;1.87;;
68858;SDS011;55864;49.238;8.092;2023-12-20T03:33:11;3.80;;;1.40;;
68858;SDS011;55864;49.238;8.092;2023-12-20T03:35:11;4.13;;;1.60;;
68858;SDS011;55864;49.238;8.092;2023-12-20T03:37:12;3.67;;;1.50;;
68858;SDS011;55864;49.238;8.092;2023-12-20T03:39:12;4.00;;;1.70;;
68858;SDS011;55864;49.238;8.092;2023-12-20T03:41:13;4.80;;;1.87;;
68858;SDS011;55864;49.238;8.092;2023-12-20T03:43:15;4.03;;;1.60;;
68858;SDS011;55864;49.238;8.092;2023-12-20T03:45:15;4.90;;;2.00;;
68858;SDS011;55864;49.238;8.092;2023-12-20T03:47:16;5.53;;;2.10;;
68858;SDS011;55864;49.238;8.092;2023-12-20T03:49:16;3.70;;;1.60;;
68858;SDS011;55864;49.238;8.092;2023-12-20T03:51:17;4.77;;;1.73;;
68858;SDS011;55864;49.238;8.092;2023-12-20T03:53:17;4.60;;;1.83;;
68858;SDS011;55864;49.238;8.092;2023-12-20T03:55:18;4.83;;;1.80;;
68858;SDS011;55864;49.238;8.092;2023-12-20T03:57:18;4.30;;;1.90;;
68858;SDS011;55864;49.238;8.092;2023-12-20T03:59:20;4.90;;;2.00;;
68858;SDS011;55864;49.238;8.092;2023-12-20T04:01:21;4.90;;;2.03;;
68858;SDS011;55864;49.238;8.092;2023-12-20T04:03:21;5.30;;;2.30;;
68858;SDS011;55864;49.238;8.092;2023-12-20T04:05:22;5.60;;;2.27;;
68858;SDS011;55864;49.238;8.092;2023-12-20T04:07:22;5.30;;;2.30;;
68858;SDS011;55864;49.238;8.092;2023-12-20T04:09:23;5.70;;;1.80;;
68858;SDS011;55864;49.238;8.092;2023-12-20T04:11:23;5.60;;;2.47;;
68858;SDS011;55864;49.238;8.092;2023-12-20T04:13:24;5.50;;;2.20;;
68858;SDS011;55864;49.238;8.092;2023-12-20T04:15:26;5.43;;;2.40;;
68858;SDS011;55864;49.238;8.092;2023-12-20T04:17:26;5.30;;;2.00;;
68858;SDS011;55864;49.238;8.092;2023-12-20T04:19:27;4.90;;;2.00;;
68858;SDS011;55864;49.238;8.092;2023-12-20T04:21:27;5.87;;;2.20;;
68858;SDS011;55864;49.238;8.092;2023-12-20T04:23:28;6.00;;;2.17;;
68858;SDS011;55864;49.238;8.092;2023-12-20T04:25:28;5.30;;;2.30;;
68858;SDS011;55864;49.238;8.092;2023-12-20T04:27:31;5.20;;;2.10;;
68858;SDS011;55864;49.238;8.092;2023-12-20T04:29:31;5.73;;;2.27;;
68858;SDS011;55864;49.238;8.092;2023-12-20T04:31:34;4.50;;;2.00;;
68858;SDS011;55864;49.238;8.092;2023-12-20T04:33:34;5.07;;;2.30;;
68858;SDS011;55864;49.238;8.092;2023-12-20T04:35:35;5.10;;;2.20;;
68858;SDS011;55864;49.238;8.092;2023-12-20T04:37:35;5.50;;;2.50;;
68858;SDS011;55864;49.238;8.092;2023-12-20T04:39:36;5.67;;;2.50;;
68858;SDS011;55864;49.238;8.092;2023-12-20T04:41:36;6.13;;;2.70;;
68858;SDS011;55864;49.238;8.092;2023-12-20T04:43:37;5.63;;;2.50;;
68858;SDS011;55864;49.238;8.092;2023-12-20T04:45:37;5.90;;;2.73;;
68858;SDS011;55864;49.238;8.092;2023-12-20T04:47:39;6.00;;;2.80;;
68858;SDS011;55864;49.238;8.092;2023-12-20T04:49:41;6.50;;;2.87;;
68858;SDS011;55864;49.238;8.092;2023-12-20T04:51:42;6.60;;;2.77;;
68858;SDS011;55864;49.238;8.092;2023-12-20T04:53:43;6.37;;;2.80;;
68858;SDS011;55864;49.238;8.092;2023-12-20T04:55:43;7.07;;;2.87;;
68858;SDS011;55864;49.238;8.092;2023-12-20T04:57:44;6.10;;;2.70;;
68858;SDS011;55864;49.238;8.092;2023-12-20T04:59:44;5.30;;;2.40;;
68858;SDS011;55864;49.238;8.092;2023-12-20T05:01:46;5.97;;;2.60;;
68858;SDS011;55864;49.238;8.092;2023-12-20T05:03:51;5.60;;;2.20;;
68858;SDS011;55864;49.238;8.092;2023-12-20T05:05:52;5.93;;;2.37;;
68858;SDS011;55864;49.238;8.092;2023-12-20T05:07:52;6.10;;;2.40;;
68858;SDS011;55864;49.238;8.092;2023-12-20T05:09:53;5.63;;;2.40;;
68858;SDS011;55864;49.238;8.092;2023-12-20T05:11:56;5.87;;;2.70;;
68858;SDS011;55864;49.238;8.092;2023-12-20T05:13:57;5.63;;;2.38;;
68858;SDS011;55864;49.238;8.092;2023-12-20T05:16:00;5.53;;;2.57;;
68858;SDS011;55864;49.238;8.092;2023-12-20T05:18:01;5.60;;;2.47;;
68858;SDS011;55864;49.238;8.092;2023-12-20T05:20:03;5.43;;;2.40;;
68858;SDS011;55864;49.238;8.092;2023-12-20T05:22:04;5.60;;;2.45;;
68858;SDS011;55864;49.238;8.092;2023-12-20T05:24:05;5.60;;;2.33;;
68858;SDS011;55864;49.238;8.092;2023-12-20T05:26:05;5.30;;;2.30;;
68858;SDS011;55864;49.238;8.092;2023-12-20T05:28:06;5.53;;;2.30;;
68858;SDS011;55864;49.238;8.092;2023-12-20T05:30:07;5.17;;;2.30;;
68858;SDS011;55864;49.238;8.092;2023-12-20T05:32:08;5.43;;;2.33;;
68858;SDS011;55864;49.238;8.092;2023-12-20T05:34:08;5.23;;;2.33;;
68858;SDS011;55864;49.238;8.092;2023-12-20T05:36:10;5.40;;;2.20;;
68858;SDS011;55864;49.238;8.092;2023-12-20T05:38:11;6.50;;;3.00;;
68858;SDS011;55864;49.238;8.092;2023-12-20T05:40:11;6.50;;;2.90;;
68858;SDS011;55864;49.238;8.092;2023-12-20T05:42:12;6.27;;;2.80;;
68858;SDS011;55864;49.238;8.092;2023-12-20T05:44:12;5.60;;;2.60;;
68858;SDS011;55864;49.238;8.092;2023-12-20T05:46:12;5.93;;;2.57;;
68858;SDS011;55864;49.238;8.092;2023-12-20T05:48:13;6.27;;;2.63;;
68858;SDS011;55864;49.238;8.092;2023-12-20T05:50:14;5.50;;;2.50;;
68858;SDS011;55864;49.238;8.092;2023-12-20T05:52:16;6.13;;;2.60;;
68858;SDS011;55864;49.238;8.092;2023-12-20T05:54:16;6.00;;;2.90;;
68858;SDS011;55864;49.238;8.092;2023-12-20T05:56:17;6.43;;;2.87;;
68858;SDS011;55864;49.238;8.092;2023-12-20T05:58:17;6.03;;;3.00;;
68858;SDS011;55864;49.238;8.092;2023-12-20T06:00:18;5.17;;;2.40;;
68858;SDS011;55864;49.238;8.092;2023-12-20T06:02:18;4.93;;;2.30;;
68858;SDS011;55864;49.238;8.092;2023-12-20T06:04:19;5.53;;;2.20;;
68858;SDS011;55864;49.238;8.092;2023-12-20T06:06:19;5.03;;;2.30;;
68858;SDS011;55864;49.238;8.092;2023-12-20T06:08:21;5.57;;;2.30;;
68858;SDS011;55864;49.238;8.092;2023-12-20T06:10:22;5.23;;;2.37;;
68858;SDS011;55864;49.238;8.092;2023-12-20T06:12:23;5.30;;;2.60;;
68858;SDS011;55864;49.238;8.092;2023-12-20T06:14:23;4.70;;;2.13;;
68858;SDS011;55864;49.238;8.092;2023-12-20T06:16:24;6.03;;;2.40;;
68858;SDS011;55864;49.238;8.092;2023-12-20T06:18:24;6.03;;;3.10;;
68858;SDS011;55864;49.238;8.092;2023-12-20T06:20:25;9.07;;;3.60;;
68858;SDS011;55864;49.238;8.092;2023-12-20T06:22:25;6.13;;;2.43;;
68858;SDS011;55864;49.238;8.092;2023-12-20T06:24:27;6.73;;;2.43;;
68858;SDS011;55864;49.238;8.092;2023-12-20T06:26:28;4.93;;;2.20;;
68858;SDS011;55864;49.238;8.092;2023-12-20T06:28:28;5.23;;;2.43;;
68858;SDS011;55864;49.238;8.092;2023-12-20T06:30:29;5.37;;;2.50;;
68858;SDS011;55864;49.238;8.092;2023-12-20T06:32:30;5.80;;;2.60;;
68858;SDS011;55864;49.238;8.092;2023-12-20T06:34:33;6.60;;;2.80;;
68858;SDS011;55864;49.238;8.092;2023-12-20T06:36:34;7.40;;;2.77;;
68858;SDS011;55864;49.238;8.092;2023-12-20T06:38:34;6.97;;;2.47;;
68858;SDS011;55864;49.238;8.092;2023-12-20T06:40:36;6.33;;;2.40;;
68858;SDS011;55864;49.238;8.092;2023-12-20T06:42:37;7.03;;;2.50;;
68858;SDS011;55864;49.238;8.092;2023-12-20T06:44:37;6.23;;;2.33;;
68858;SDS011;55864;49.238;8.092;2023-12-20T06:46:38;5.93;;;2.57;;
68858;SDS011;55864;49.238;8.092;2023-12-20T06:48:38;5.23;;;2.40;;
68858;SDS011;55864;49.238;8.092;2023-12-20T06:50:39;6.50;;;2.07;;
68858;SDS011;55864;49.238;8.092;2023-12-20T06:52:39;5.03;;;2.10;;
68858;SDS011;55864;49.238;8.092;2023-12-20T06:54:40;7.47;;;2.00;;
68858;SDS011;55864;49.238;8.092;2023-12-20T06:56:42;6.40;;;2.60;;
68858;SDS011;55864;49.238;8.092;2023-12-20T06:58:42;6.90;;;1.87;;
68858;SDS011;55864;49.238;8.092;2023-12-20T07:00:43;5.93;;;1.80;;
68858;SDS011;55864;49.238;8.092;2023-12-20T07:02:44;7.73;;;1.90;;
68858;SDS011;55864;49.238;8.092;2023-12-20T07:04:45;6.83;;;2.17;;
68858;SDS011;55864;49.238;8.092;2023-12-20T07:06:45;8.20;;;2.37;;
68858;SDS011;55864;49.238;8.092;2023-12-20T07:08:46;6.27;;;2.20;;
68858;SDS011;55864;49.238;8.092;2023-12-20T07:10:46;5.10;;;2.13;;
68858;SDS011;55864;49.238;8.092;2023-12-20T07:12:48;6.33;;;2.00;;
68858;SDS011;55864;49.238;8.092;2023-12-20T07:14:49;5.83;;;2.33;;
68858;SDS011;55864;49.238;8.092;2023-12-20T07:16:49;6.50;;;2.93;;
68858;SDS011;55864;49.238;8.092;2023-12-20T07:18:50;7.70;;;2.67;;
68858;SDS011;55864;49.238;8.092;2023-12-20T07:20:50;7.93;;;2.77;;
68858;SDS011;55864;49.238;8.092;2023-12-20T07:22:51;4.93;;;2.30;;
68858;SDS011;55864;49.238;8.092;2023-12-20T07:24:51;5.70;;;2.47;;
68858;SDS011;55864;49.238;8.092;2023-12-20T07:26:52;5.33;;;1.90;;
68858;SDS011;55864;49.238;8.092;2023-12-20T07:28:54;5.33;;;2.17;;
68858;SDS011;55864;49.238;8.092;2023-12-20T07:30:54;4.60;;;1.73;;
68858;SDS011;55864;49.238;8.092;2023-12-20T07:32:54;7.07;;;2.23;;
68858;SDS011;55864;49.238;8.092;2023-12-20T07:34:55;5.00;;;1.90;;
68858;SDS011;55864;49.238;8.092;2023-12-20T07:36:56;8.80;;;2.30;;
68858;SDS011;55864;49.238;8.092;2023-12-20T07:38:56;5.07;;;2.00;;
68858;SDS011;55864;49.238;8.092;2023-12-20T07:40:57;6.53;;;2.70;;
68858;SDS011;55864;49.238;8.092;2023-12-20T07:42:57;6.80;;;2.47;;
68858;SDS011;55864;49.238;8.092;2023-12-20T07:44:59;7.17;;;2.60;;
68858;SDS011;55864;49.238;8.092;2023-12-20T07:47:00;8.00;;;2.63;;
68858;SDS011;55864;49.238;8.092;2023-12-20T07:49:00;7.40;;;2.70;;
68858;SDS011;55864;49.238;8.092;2023-12-20T07:51:01;6.93;;;2.30;;
68858;SDS011;55864;49.238;8.092;2023-12-20T07:53:01;9.23;;;2.70;;
68858;SDS011;55864;49.238;8.092;2023-12-20T07:55:02;10.30;;;3.03;;
68858;SDS011;55864;49.238;8.092;2023-12-20T07:57:03;6.53;;;2.30;;
68858;SDS011;55864;49.238;8.092;2023-12-20T07:59:04;8.30;;;2.50;;
68858;SDS011;55864;49.238;8.092;2023-12-20T08:01:06;7.90;;;2.40;;
68858;SDS011;55864;49.238;8.092;2023-12-20T08:03:09;7.07;;;2.13;;
68858;SDS011;55864;49.238;8.092;2023-12-20T08:05:17;7.60;;;2.10;;
68858;SDS011;55864;49.238;8.092;2023-12-20T08:07:17;10.27;;;2.93;;
68858;SDS011;55864;49.238;8.092;2023-12-20T08:09:18;9.47;;;2.50;;
68858;SDS011;55864;49.238;8.092;2023-12-20T08:11:19;9.47;;;2.40;;
68858;SDS011;55864;49.238;8.092;2023-12-20T08:13:19;6.47;;;2.20;;
68858;SDS011;55864;49.238;8.092;2023-12-20T08:15:20;8.67;;;2.17;;
68858;SDS011;55864;49.238;8.092;2023-12-20T08:17:21;8.00;;;2.03;;
68858;SDS011;55864;49.238;8.092;2023-12-20T08:19:22;8.40;;;2.20;;
68858;SDS011;55864;49.238;8.092;2023-12-20T08:21:22;6.83;;;2.00;;
68858;SDS011;55864;49.238;8.092;2023-12-20T08:23:23;5.87;;;2.10;;
68858;SDS011;55864;49.238;8.092;2023-12-20T08:25:24;7.77;;;2.10;;
68858;SDS011;55864;49.238;8.092;2023-12-20T08:27:24;10.03;;;2.20;;
68858;SDS011;55864;49.238;8.092;2023-12-20T08:29:25;5.80;;;1.90;;
68858;SDS011;55864;49.238;8.092;2023-12-20T08:31:25;9.83;;;2.40;;
68858;SDS011;55864;49.238;8.092;2023-12-20T08:33:28;9.80;;;2.20;;
68858;SDS011;55864;49.238;8.092;2023-12-20T08:35:28;11.15;;;2.50;;
68858;SDS011;55864;49.238;8.092;2023-12-20T08:37:29;7.00;;;2.30;;
68858;SDS011;55864;49.238;8.092;2023-12-20T08:39:30;8.73;;;2.17;;
68858;SDS011;55864;49.238;8.092;2023-12-20T08:41:30;6.53;;;2.13;;
68858;SDS011;55864;49.238;8.092;2023-12-20T08:43:31;7.13;;;2.07;;
68858;SDS011;55864;49.238;8.092;2023-12-20T08:45:31;12.17;;;3.20;;
68858;SDS011;55864;49.238;8.092;2023-12-20T08:47:32;8.80;;;2.23;;
68858;SDS011;55864;49.238;8.092;2023-12-20T08:49:34;10.07;;;2.10;;
68858;SDS011;55864;49.238;8.092;2023-12-20T08:51:34;12.03;;;2.30;;
68858;SDS011;55864;49.238;8.092;2023-12-20T08:53:35;7.23;;;2.07;;
68858;SDS011;55864;49.238;8.092;2023-12-20T08:55:35;9.97;;;2.23;;
68858;SDS011;55864;49.238;8.092;2023-12-20T08:57:36;10.67;;;2.00;;
68858;SDS011;55864;49.238;8.092;2023-12-20T08:59:36;7.77;;;2.03;;
68858;SDS011;55864;49.238;8.092;2023-12-20T09:01:37;9.37;;;1.97;;
68858;SDS011;55864;49.238;8.092;2023-12-20T09:03:41;8.23;;;2.27;;
68858;SDS011;55864;49.238;8.092;2023-12-20T09:05:43;7.53;;;1.90;;
68858;SDS011;55864;49.238;8.092;2023-12-20T09:07:44;7.10;;;2.00;;
68858;SDS011;55864;49.238;8.092;2023-12-20T09:09:44;9.13;;;2.43;;
68858;SDS011;55864;49.238;8.092;2023-12-20T09:11:45;6.50;;;1.90;;
68858;SDS011;55864;49.238;8.092;2023-12-20T09:13:45;7.80;;;1.90;;
68858;SDS011;55864;49.238;8.092;2023-12-20T09:15:46;9.13;;;2.60;;
68858;SDS011;55864;49.238;8.092;2023-12-20T09:17:46;9.47;;;2.37;;
68858;SDS011;55864;49.238;8.092;2023-12-20T09:19:47;9.70;;;2.10;;
68858;SDS011;55864;49.238;8.092;2023-12-20T09:21:48;7.30;;;1.90;;
68858;SDS011;55864;49.238;8.092;2023-12-20T09:23:49;9.53;;;2.10;;
68858;SDS011;55864;49.238;8.092;2023-12-20T09:25:50;5.60;;;1.97;;
68858;SDS011;55864;49.238;8.092;2023-12-20T09:27:50;8.80;;;2.33;;
68858;SDS011;55864;49.238;8.092;2023-12-20T09:29:51;8.73;;;1.90;;
68858;SDS011;55864;49.238;8.092;2023-12-20T09:31:51;6.80;;;2.00;;
68858;SDS011;55864;49.238;8.092;2023-12-20T09:33:53;9.03;;;2.10;;
68858;SDS011;55864;49.238;8.092;2023-12-20T09:35:54;10.38;;;1.90;;
68858;SDS011;55864;49.238;8.092;2023-12-20T09:37:56;12.33;;;2.20;;
68858;SDS011;55864;49.238;8.092;2023-12-20T09:39:57;6.67;;;2.10;;
68858;SDS011;55864;49.238;8.092;2023-12-20T09:42:00;9.13;;;2.30;;
68858;SDS011;55864;49.238;8.092;2023-12-20T09:46:02;7.53;;;1.80;;
68858;SDS011;55864;49.238;8.092;2023-12-20T09:48:06;10.70;;;2.35;;
68858;SDS011;55864;49.238;8.092;2023-12-20T09:50:08;10.70;;;2.23;;
68858;SDS011;55864;49.238;8.092;2023-12-20T09:52:09;10.13;;;3.27;;
68858;SDS011;55864;49.238;8.092;2023-12-20T09:54:12;6.13;;;2.20;;
68858;SDS011;55864;49.238;8.092;2023-12-20T09:56:14;6.97;;;2.20;;
68858;SDS011;55864;49.238;8.092;2023-12-20T09:58:15;10.77;;;2.43;;
68858;SDS011;55864;49.238;8.092;2023-12-20T10:00:15;9.40;;;2.07;;
68858;SDS011;55864;49.238;8.092;2023-12-20T10:02:17;7.93;;;2.23;;
68858;SDS011;55864;49.238;8.092;2023-12-20T10:04:21;9.07;;;2.20;;
68858;SDS011;55864;49.238;8.092;2023-12-20T10:06:22;8.47;;;2.20;;
68858;SDS011;55864;49.238;8.092;2023-12-20T10:08:22;7.50;;;2.00;;
68858;SDS011;55864;49.238;8.092;2023-12-20T10:10:25;12.93;;;1.93;;
68858;SDS011;55864;49.238;8.092;2023-12-20T10:12:26;6.37;;;2.23;;
68858;SDS011;55864;49.238;8.092;2023-12-20T10:14:26;9.27;;;2.10;;
68858;SDS011;55864;49.238;8.092;2023-12-20T10:16:27;13.57;;;2.47;;
68858;SDS011;55864;49.238;8.092;2023-12-20T10:18:28;12.20;;;2.70;;
68858;SDS011;55864;49.238;8.092;2023-12-20T10:20:29;9.23;;;2.43;;
68858;SDS011;55864;49.238;8.092;2023-12-20T10:22:30;10.17;;;2.50;;
68858;SDS011;55864;49.238;8.092;2023-12-20T10:24:32;8.93;;;2.70;;
68858;SDS011;55864;49.238;8.092;2023-12-20T10:26:34;9.10;;;2.20;;
68858;SDS011;55864;49.238;8.092;2023-12-20T10:28:34;10.43;;;2.30;;
68858;SDS011;55864;49.238;8.092;2023-12-20T10:30:35;11.10;;;3.50;;
68858;SDS011;55864;49.238;8.092;2023-12-20T10:32:36;10.33;;;2.53;;
68858;SDS011;55864;49.238;8.092;2023-12-20T10:34:36;8.80;;;2.47;;
68858;SDS011;55864;49.238;8.092;2023-12-20T10:36:37;11.43;;;2.30;;
68858;SDS011;55864;49.238;8.092;2023-12-20T10:38:37;9.90;;;2.10;;
68858;SDS011;55864;49.238;8.092;2023-12-20T10:40:42;11.27;;;2.43;;
68858;SDS011;55864;49.238;8.092;2023-12-20T10:42:46;10.35;;;2.70;;
68858;SDS011;55864;49.238;8.092;2023-12-20T10:44:47;8.93;;;2.67;;
68858;SDS011;55864;49.238;8.092;2023-12-20T10:46:49;10.30;;;2.40;;
68858;SDS011;55864;49.238;8.092;2023-12-20T10:48:49;11.37;;;3.63;;
68858;SDS011;55864;49.238;8.092;2023-12-20T10:50:53;11.32;;;2.67;;
68858;SDS011;55864;49.238;8.092;2023-12-20T10:52:56;10.07;;;2.70;;
68858;SDS011;55864;49.238;8.092;2023-12-20T10:54:57;11.87;;;2.90;;
68858;SDS011;55864;49.238;8.092;2023-12-20T10:56:57;10.73;;;3.20;;
68858;SDS011;55864;49.238;8.092;2023-12-20T10:59:00;12.30;;;3.00;;
68858;SDS011;55864;49.238;8.092;2023-12-20T11:01:02;10.20;;;2.67;;
68858;SDS011;55864;49.238;8.092;2023-12-20T11:03:04;11.77;;;2.73;;
68858;SDS011;55864;49.238;8.092;2023-12-20T11:05:10;11.88;;;3.65;;
68858;SDS011;55864;49.238;8.092;2023-12-20T11:07:21;10.57;;;2.80;;
68858;SDS011;55864;49.238;8.092;2023-12-20T11:09:28;10.10;;;3.00;;
68858;SDS011;55864;49.238;8.092;2023-12-20T11:11:34;16.57;;;3.50;;
68858;SDS011;55864;49.238;8.092;2023-12-20T11:13:40;12.77;;;3.70;;
68858;SDS011;55864;49.238;8.092;2023-12-20T11:15:49;8.80;;;2.90;;
68858;SDS011;55864;49.238;8.092;2023-12-20T11:17:54;8.47;;;3.00;;
68858;SDS011;55864;49.238;8.092;2023-12-20T11:20:05;10.03;;;3.13;;
68858;SDS011;55864;49.238;8.092;2023-12-20T11:22:07;10.20;;;3.17;;
68858;SDS011;55864;49.238;8.092;2023-12-20T11:24:09;8.93;;;3.00;;
68858;SDS011;55864;49.238;8.092;2023-12-20T11:26:10;8.90;;;2.73;;
68858;SDS011;55864;49.238;8.092;2023-12-20T11:28:11;10.33;;;3.13;;
68858;SDS011;55864;49.238;8.092;2023-12-20T11:30:13;10.43;;;2.80;;
68858;SDS011;55864;49.238;8.092;2023-12-20T11:32:28;10.73;;;3.00;;
68858;SDS011;55864;49.238;8.092;2023-12-20T11:34:31;9.97;;;3.33;;
68858;SDS011;55864;49.238;8.092;2023-12-20T11:36:32;8.13;;;2.90;;
68858;SDS011;55864;49.238;8.092;2023-12-20T11:38:35;9.63;;;3.00;;
68858;SDS011;55864;49.238;8.092;2023-12-20T11:40:36;11.00;;;3.20;;
68858;SDS011;55864;49.238;8.092;2023-12-20T11:42:37;13.70;;;3.70;;
68858;SDS011;55864;49.238;8.092;2023-12-20T11:44:38;11.83;;;3.17;;
68858;SDS011;55864;49.238;8.092;2023-12-20T11:46:39;16.37;;;3.17;;
68858;SDS011;55864;49.238;8.092;2023-12-20T11:48:41;14.57;;;3.20;;
68858;SDS011;55864;49.238;8.092;2023-12-20T11:50:41;9.50;;;2.63;;
68858;SDS011;55864;49.238;8.092;2023-12-20T11:52:42;9.23;;;2.63;;
68858;SDS011;55864;49.238;8.092;2023-12-20T11:54:42;8.07;;;3.10;;
68858;SDS011;55864;49.238;8.092;2023-12-20T11:56:43;9.83;;;2.63;;
68858;SDS011;55864;49.238;8.092;2023-12-20T11:58:43;9.57;;;2.83;;
68858;SDS011;55864;49.238;8.092;2023-12-20T12:00:44;9.67;;;2.73;;
68858;SDS011;55864;49.238;8.092;2023-12-20T12:02:54;12.20;;;2.70;;
68858;SDS011;55864;49.238;8.092;2023-12-20T12:04:57;9.60;;;2.50;;
68858;SDS011;55864;49.238;8.092;2023-12-20T12:07:02;10.90;;;2.67;;
68858;SDS011;55864;49.238;8.092;2023-12-20T12:09:03;10.17;;;2.60;;
68858;SDS011;55864;49.238;8.092;2023-12-20T12:11:03;12.07;;;3.07;;
68858;SDS011;55864;49.238;8.092;2023-12-20T12:13:04;11.50;;;3.40;;